sensor_id;sensor_type;location;lat;lon;timestamp;P1;P2;P0
43280;PMS5003;62175;49.416;8.690;2023-08-24T00:02:25;12;12;
43280;PMS5003;62175;49.416;8.690;2023-08-24T00:04:51;13;13;
43280;PMS5003;62175;49.416;8.690;2023-08-24T00:07:20;12;12;
43280;PMS5003;62175;49.416;8.690;2023-08-24T00:09:57;14;14;
43280;PMS5003;62175;49.416;8.690;2023-08-24T00:12:38;12;12;
43280;PMS5003;62175;49.416;8.690;2023-08-24T00:15:13;11;11;
43280;PMS5003;62175;49.416;8.690;2023-08-24T00:17:42;15;14;
43280;PMS5003;62175;49.416;8.690;2023-08-24T00:20:30;22;21;
43280;PMS5003;62175;49.416;8.690;2023-08-24T00:23:07;24;24;
43280;PMS5003;62175;49.416;8.690;2023-08-24T00:25:36;20;20;
43280;PMS5003;62175;49.416;8.690;2023-08-24T00:28:06;14;14;
43280;PMS5003;62175;49.416;8.690;2023-08-24T00:30:35;17;17;
43280;PMS5003;62175;49.416;8.690;2023-08-24T00:33:04;16;14;
43280;PMS5003;62175;49.416;8.690;2023-08-24T00:35:35;15;15;
43280;PMS5003;62175;49.416;8.690;2023-08-24T00:38:03;14;13;
43280;PMS5003;62175;49.416;8.690;2023-08-24T00:40:32;18;16;
43280;PMS5003;62175;49.416;8.690;2023-08-24T00:42:59;15;15;
43280;PMS5003;62175;49.416;8.690;2023-08-24T00:45:32;14;14;
43280;PMS5003;62175;49.416;8.690;2023-08-24T00:48:00;14;14;
43280;PMS5003;62175;49.416;8.690;2023-08-24T00:50:42;12;12;
43280;PMS5003;62175;49.416;8.690;2023-08-24T00:53:11;12;12;
43280;PMS5003;62175;49.416;8.690;2023-08-24T00:55:43;14;14;
43280;PMS5003;62175;49.416;8.690;2023-08-24T00:58:13;13;13;
43280;PMS5003;62175;49.416;8.690;2023-08-24T01:00:44;16;16;
43280;PMS5003;62175;49.416;8.690;2023-08-24T01:03:24;18;18;
43280;PMS5003;62175;49.416;8.690;2023-08-24T01:05:55;15;15;
43280;PMS5003;62175;49.416;8.690;2023-08-24T01:08:38;13;13;
43280;PMS5003;62175;49.416;8.690;2023-08-24T01:25:42;13;13;
43280;PMS5003;62175;49.416;8.690;2023-08-24T01:28:18;32;32;
43280;PMS5003;62175;49.416;8.690;2023-08-24T01:30:51;14;14;
43280;PMS5003;62175;49.416;8.690;2023-08-24T01:33:19;16;16;
43280;PMS5003;62175;49.416;8.690;2023-08-24T01:35:47;25;25;
43280;PMS5003;62175;49.416;8.690;2023-08-24T01:38:16;16;14;
43280;PMS5003;62175;49.416;8.690;2023-08-24T01:40:48;18;17;
43280;PMS5003;62175;49.416;8.690;2023-08-24T01:43:24;15;15;
43280;PMS5003;62175;49.416;8.690;2023-08-24T01:46:04;17;17;
43280;PMS5003;62175;49.416;8.690;2023-08-24T01:48:51;18;18;
43280;PMS5003;62175;49.416;8.690;2023-08-24T01:51:22;21;21;
43280;PMS5003;62175;49.416;8.690;2023-08-24T01:53:57;22;22;
43280;PMS5003;62175;49.416;8.690;2023-08-24T01:56:29;26;26;
43280;PMS5003;62175;49.416;8.690;2023-08-24T01:59:00;45;44;
43280;PMS5003;62175;49.416;8.690;2023-08-24T02:01:28;49;48;
43280;PMS5003;62175;49.416;8.690;2023-08-24T02:04:20;22;22;
43280;PMS5003;62175;49.416;8.690;2023-08-24T02:06:54;18;18;
43280;PMS5003;62175;49.416;8.690;2023-08-24T02:09:55;21;20;
43280;PMS5003;62175;49.416;8.690;2023-08-24T02:12:26;25;24;
43280;PMS5003;62175;49.416;8.690;2023-08-24T02:15:06;51;51;
43280;PMS5003;62175;49.416;8.690;2023-08-24T02:17:43;14;14;
43280;PMS5003;62175;49.416;8.690;2023-08-24T02:20:19;18;17;
43280;PMS5003;62175;49.416;8.690;2023-08-24T02:22:57;18;17;
43280;PMS5003;62175;49.416;8.690;2023-08-24T02:25:27;16;16;
43280;PMS5003;62175;49.416;8.690;2023-08-24T02:28:11;16;15;
43280;PMS5003;62175;49.416;8.690;2023-08-24T02:30:39;14;13;
43280;PMS5003;62175;49.416;8.690;2023-08-24T02:33:17;14;14;
43280;PMS5003;62175;49.416;8.690;2023-08-24T02:35:48;11;11;
43280;PMS5003;62175;49.416;8.690;2023-08-24T02:38:16;19;16;
43280;PMS5003;62175;49.416;8.690;2023-08-24T02:40:47;17;16;
43280;PMS5003;62175;49.416;8.690;2023-08-24T02:43:27;15;15;
43280;PMS5003;62175;49.416;8.690;2023-08-24T02:46:09;15;15;
43280;PMS5003;62175;49.416;8.690;2023-08-24T02:48:42;15;15;
43280;PMS5003;62175;49.416;8.690;2023-08-24T02:51:13;18;18;
43280;PMS5003;62175;49.416;8.690;2023-08-24T02:53:51;17;17;
43280;PMS5003;62175;49.416;8.690;2023-08-24T02:56:22;16;15;
43280;PMS5003;62175;49.416;8.690;2023-08-24T02:58:51;17;17;
43280;PMS5003;62175;49.416;8.690;2023-08-24T03:01:20;17;17;
43280;PMS5003;62175;49.416;8.690;2023-08-24T03:03:49;18;18;
43280;PMS5003;62175;49.416;8.690;2023-08-24T03:06:17;17;17;
43280;PMS5003;62175;49.416;8.690;2023-08-24T03:08:45;16;16;
43280;PMS5003;62175;49.416;8.690;2023-08-24T03:11:15;19;19;
43280;PMS5003;62175;49.416;8.690;2023-08-24T03:13:45;19;19;
43280;PMS5003;62175;49.416;8.690;2023-08-24T03:16:22;24;23;
43280;PMS5003;62175;49.416;8.690;2023-08-24T03:18:54;20;20;
43280;PMS5003;62175;49.416;8.690;2023-08-24T03:21:23;19;19;
43280;PMS5003;62175;49.416;8.690;2023-08-24T03:24:10;17;17;
43280;PMS5003;62175;49.416;8.690;2023-08-24T03:26:49;30;30;
43280;PMS5003;62175;49.416;8.690;2023-08-24T03:29:25;22;21;
43280;PMS5003;62175;49.416;8.690;2023-08-24T03:32:30;26;25;
43280;PMS5003;62175;49.416;8.690;2023-08-24T03:35:09;30;29;
43280;PMS5003;62175;49.416;8.690;2023-08-24T03:37:52;24;24;
43280;PMS5003;62175;49.416;8.690;2023-08-24T03:40:21;21;21;
43280;PMS5003;62175;49.416;8.690;2023-08-24T03:42:52;24;23;
43280;PMS5003;62175;49.416;8.690;2023-08-24T03:45:22;20;20;
43280;PMS5003;62175;49.416;8.690;2023-08-24T03:47:49;24;24;
43280;PMS5003;62175;49.416;8.690;2023-08-24T03:50:18;17;17;
43280;PMS5003;62175;49.416;8.690;2023-08-24T03:52:47;17;17;
43280;PMS5003;62175;49.416;8.690;2023-08-24T03:55:19;16;16;
43280;PMS5003;62175;49.416;8.690;2023-08-24T03:57:48;13;13;
43280;PMS5003;62175;49.416;8.690;2023-08-24T04:00:20;13;13;
43280;PMS5003;62175;49.416;8.690;2023-08-24T04:02:50;12;12;
43280;PMS5003;62175;49.416;8.690;2023-08-24T04:05:19;12;12;
43280;PMS5003;62175;49.416;8.690;2023-08-24T04:07:49;14;13;
43280;PMS5003;62175;49.416;8.690;2023-08-24T04:10:18;10;10;
43280;PMS5003;62175;49.416;8.690;2023-08-24T04:12:59;13;13;
43280;PMS5003;62175;49.416;8.690;2023-08-24T04:15:29;13;10;
43280;PMS5003;62175;49.416;8.690;2023-08-24T04:18:05;12;11;
43280;PMS5003;62175;49.416;8.690;2023-08-24T04:20:35;14;11;
43280;PMS5003;62175;49.416;8.690;2023-08-24T04:23:03;11;11;
43280;PMS5003;62175;49.416;8.690;2023-08-24T04:25:31;10;10;
43280;PMS5003;62175;49.416;8.690;2023-08-24T04:25:59;10;10;
43280;PMS5003;62175;49.416;8.690;2023-08-24T04:28:35;31;30;
43280;PMS5003;62175;49.416;8.690;2023-08-24T04:31:09;62;61;
43280;PMS5003;62175;49.416;8.690;2023-08-24T04:33:57;24;24;
43280;PMS5003;62175;49.416;8.690;2023-08-24T04:36:41;86;86;
43280;PMS5003;62175;49.416;8.690;2023-08-24T04:39:50;95;95;
43280;PMS5003;62175;49.416;8.690;2023-08-24T04:42:21;53;53;
43280;PMS5003;62175;49.416;8.690;2023-08-24T04:45:06;27;27;
43280;PMS5003;62175;49.416;8.690;2023-08-24T04:47:51;27;26;
43280;PMS5003;62175;49.416;8.690;2023-08-24T04:50:27;41;40;
43280;PMS5003;62175;49.416;8.690;2023-08-24T04:52:55;33;33;
43280;PMS5003;62175;49.416;8.690;2023-08-24T04:55:27;21;21;
43280;PMS5003;62175;49.416;8.690;2023-08-24T04:58:00;19;19;
43280;PMS5003;62175;49.416;8.690;2023-08-24T05:00:37;15;14;
43280;PMS5003;62175;49.416;8.690;2023-08-24T05:03:32;11;11;
43280;PMS5003;62175;49.416;8.690;2023-08-24T05:07:46;13;13;
43280;PMS5003;62175;49.416;8.690;2023-08-24T05:10:15;12;11;
43280;PMS5003;62175;49.416;8.690;2023-08-24T05:12:46;14;13;
43280;PMS5003;62175;49.416;8.690;2023-08-24T05:15:13;11;11;
43280;PMS5003;62175;49.416;8.690;2023-08-24T05:17:43;12;12;
43280;PMS5003;62175;49.416;8.690;2023-08-24T05:20:15;13;11;
43280;PMS5003;62175;49.416;8.690;2023-08-24T05:22:46;12;11;
43280;PMS5003;62175;49.416;8.690;2023-08-24T05:25:15;12;12;
43280;PMS5003;62175;49.416;8.690;2023-08-24T05:27:53;11;11;
43280;PMS5003;62175;49.416;8.690;2023-08-24T05:30:24;11;11;
43280;PMS5003;62175;49.416;8.690;2023-08-24T05:32:57;14;13;
43280;PMS5003;62175;49.416;8.690;2023-08-24T05:35:27;12;12;
43280;PMS5003;62175;49.416;8.690;2023-08-24T05:37:58;13;13;
43280;PMS5003;62175;49.416;8.690;2023-08-24T05:40:27;10;10;
43280;PMS5003;62175;49.416;8.690;2023-08-24T05:43:16;13;13;
43280;PMS5003;62175;49.416;8.690;2023-08-24T05:46:50;14;14;
43280;PMS5003;62175;49.416;8.690;2023-08-24T05:49:46;16;15;
43280;PMS5003;62175;49.416;8.690;2023-08-24T05:52:22;18;17;
43280;PMS5003;62175;49.416;8.690;2023-08-24T05:54:56;17;16;
43280;PMS5003;62175;49.416;8.690;2023-08-24T05:57:24;19;19;
43280;PMS5003;62175;49.416;8.690;2023-08-24T05:59:52;20;20;
43280;PMS5003;62175;49.416;8.690;2023-08-24T06:02:22;20;19;
43280;PMS5003;62175;49.416;8.690;2023-08-24T06:05:20;22;21;
43280;PMS5003;62175;49.416;8.690;2023-08-24T06:07:56;22;20;
43280;PMS5003;62175;49.416;8.690;2023-08-24T06:37:29;22;22;
43280;PMS5003;62175;49.416;8.690;2023-08-24T06:40:11;19;19;
43280;PMS5003;62175;49.416;8.690;2023-08-24T06:42:58;20;20;
43280;PMS5003;62175;49.416;8.690;2023-08-24T06:45:49;19;18;
43280;PMS5003;62175;49.416;8.690;2023-08-24T06:48:23;16;16;
43280;PMS5003;62175;49.416;8.690;2023-08-24T06:50:56;17;16;
43280;PMS5003;62175;49.416;8.690;2023-08-24T06:53:31;17;16;
43280;PMS5003;62175;49.416;8.690;2023-08-24T06:56:08;18;17;
43280;PMS5003;62175;49.416;8.690;2023-08-24T06:58:42;16;16;
43280;PMS5003;62175;49.416;8.690;2023-08-24T07:01:13;18;18;
43280;PMS5003;62175;49.416;8.690;2023-08-24T07:03:42;19;17;
43280;PMS5003;62175;49.416;8.690;2023-08-24T07:06:16;18;18;
43280;PMS5003;62175;49.416;8.690;2023-08-24T07:35:44;20;20;
43280;PMS5003;62175;49.416;8.690;2023-08-24T07:55:22;20;19;
43280;PMS5003;62175;49.416;8.690;2023-08-24T22:45:55;25;25;
43280;PMS5003;62175;49.416;8.690;2023-08-24T22:48:22;25;25;
43280;PMS5003;62175;49.416;8.690;2023-08-24T22:50:49;21;21;
43280;PMS5003;62175;49.416;8.690;2023-08-24T22:53:17;24;22;
43280;PMS5003;62175;49.416;8.690;2023-08-24T22:55:44;25;23;
43280;PMS5003;62175;49.416;8.690;2023-08-24T23:57:05;29;27;
43280;PMS5003;62175;49.416;8.690;2023-08-24T23:59:32;20;19;
